Time;durP1;ratioP1;P1;durP2;ratioP2;P2;SDS_P1;SDS_P2;PMS_P1;PMS_P2;Temp;Humidity;BMP_temperature;BMP_pressure;BME280_temperature;BME280_humidity;BME280_pressure;Samples;Min_cycle;Max_cycle;Signal;HPM_P1;HPM_P2
2022/11/01 00:01:03;;;;;;;17.77;8.68;;;;;;;14.45;95.10;100785.56;5028806;28;20037;-59
2022/11/01 00:03:28;;;;;;;17.52;8.70;;;;;;;14.46;95.17;100787.22;5027682;28;20088;-59
2022/11/01 00:05:53;;;;;;;14.48;8.80;;;;;;;14.51;95.17;100778.19;5015675;28;20477;-59
2022/11/01 00:08:19;;;;;;;17.17;8.57;;;;;;;14.54;95.33;100770.19;5025074;28;20045;-59
2022/11/01 00:10:44;;;;;;;16.10;8.98;;;;;;;14.58;95.36;100770.53;5029413;28;20555;-59
2022/11/01 00:13:09;;;;;;;17.20;8.50;;;;;;;14.61;95.60;100761.72;5027834;28;20132;-58
2022/11/01 00:15:34;;;;;;;13.35;8.65;;;;;;;14.65;94.93;100764.78;5029108;28;20361;-58
2022/11/01 00:18:00;;;;;;;14.80;8.70;;;;;;;14.66;95.13;100753.50;5025289;28;20108;-58
2022/11/01 00:20:25;;;;;;;15.37;8.30;;;;;;;14.74;94.77;100757.69;5027967;28;20079;-58
2022/11/01 00:22:50;;;;;;;16.30;8.57;;;;;;;14.80;94.94;100753.91;5027572;28;20303;-58
2022/11/01 00:25:15;;;;;;;17.43;9.07;;;;;;;14.82;95.27;100748.13;5027716;28;20180;-58
2022/11/01 00:27:41;;;;;;;16.67;8.55;;;;;;;14.88;94.34;100750.66;5026425;28;20304;-58
2022/11/01 00:30:06;;;;;;;16.13;8.25;;;;;;;14.95;94.53;100745.78;5014338;28;20587;-58
2022/11/01 00:32:32;;;;;;;17.80;7.80;;;;;;;15.10;94.34;100742.28;5026227;28;20041;-59
2022/11/01 00:34:57;;;;;;;14.52;7.45;;;;;;;15.20;93.72;100747.91;5027320;28;20117;-58
2022/11/01 00:37:22;;;;;;;16.33;7.60;;;;;;;15.32;93.09;100745.81;5027922;28;20400;-59
2022/11/01 00:39:47;;;;;;;15.05;7.30;;;;;;;15.44;93.08;100736.47;5029053;28;20033;-58
2022/11/01 00:42:13;;;;;;;12.93;6.87;;;;;;;15.51;92.75;100742.59;5027071;28;20036;-60
2022/11/01 00:44:38;;;;;;;16.35;6.45;;;;;;;15.57;92.96;100730.50;5023674;28;20755;-58
2022/11/01 00:47:03;;;;;;;14.98;7.03;;;;;;;15.64;92.85;100741.34;5025206;28;20091;-59
2022/11/01 00:49:28;;;;;;;16.40;7.10;;;;;;;15.73;92.40;100734.22;5028204;28;20633;-58
2022/11/01 00:51:54;;;;;;;14.25;6.20;;;;;;;15.78;92.04;100734.25;5027615;28;20021;-58
2022/11/01 00:54:19;;;;;;;14.18;6.70;;;;;;;15.84;92.14;100741.47;5025550;28;20095;-58
2022/11/01 00:56:44;;;;;;;15.80;6.90;;;;;;;15.94;91.63;100735.16;5028194;28;20029;-58
2022/11/01 00:59:09;;;;;;;10.95;6.80;;;;;;;15.94;91.70;100737.94;5015892;28;20319;-58
2022/11/01 01:01:35;;;;;;;16.48;6.50;;;;;;;15.91;91.82;100730.97;5010318;28;20030;-59
2022/11/01 01:04:00;;;;;;;15.10;6.60;;;;;;;15.91;91.60;100725.44;5026359;28;20029;-59
2022/11/01 01:06:25;;;;;;;13.77;6.75;;;;;;;15.92;91.83;100723.53;5027983;28;20108;-59
2022/11/01 01:08:50;;;;;;;15.15;6.93;;;;;;;15.85;91.95;100720.97;5026728;28;20088;-59
2022/11/01 01:11:16;;;;;;;12.80;6.47;;;;;;;15.80;92.19;100721.78;5027471;28;20576;-58
2022/11/01 01:13:41;;;;;;;14.90;6.57;;;;;;;15.78;92.52;100714.84;5025901;28;20076;-59
2022/11/01 01:16:09;;;;;;;15.05;6.82;;;;;;;15.86;92.18;100717.09;5027796;28;20034;-58
2022/11/01 01:18:34;;;;;;;12.10;6.88;;;;;;;15.91;92.17;100710.75;5026659;28;20056;-59
2022/11/01 01:21:01;;;;;;;14.48;7.40;;;;;;;15.93;92.19;100712.16;5015094;28;20120;-58
2022/11/01 01:23:26;;;;;;;13.93;6.35;;;;;;;15.98;92.02;100708.59;5025766;28;20112;-59
2022/11/01 01:25:51;;;;;;;15.05;7.28;;;;;;;16.00;92.27;100712.75;5027127;28;20116;-59
2022/11/01 01:28:16;;;;;;;13.95;6.72;;;;;;;16.01;92.15;100703.31;5025656;28;20029;-58
2022/11/01 01:30:42;;;;;;;13.05;6.88;;;;;;;16.04;92.39;100724.13;5018772;28;20040;-58
2022/11/01 01:33:08;;;;;;;16.98;7.10;;;;;;;16.08;91.96;100712.22;5015853;28;20415;-58
2022/11/01 01:35:33;;;;;;;14.70;6.50;;;;;;;16.07;92.17;100721.66;5027569;28;20408;-59
2022/11/01 01:37:58;;;;;;;16.42;6.60;;;;;;;16.09;92.38;100727.75;5025019;28;20033;-59
2022/11/01 01:40:24;;;;;;;16.75;6.95;;;;;;;16.06;92.87;100717.19;5026944;28;20041;-58
2022/11/01 01:42:49;;;;;;;13.57;6.95;;;;;;;16.15;92.22;100719.47;5025575;28;20025;-60
2022/11/01 01:45:28;;;;;;;15.52;7.18;;;;;;;16.14;92.68;100715.84;5027234;28;20095;-58
2022/11/01 01:47:58;;;;;;;14.80;6.70;;;;;;;16.18;92.51;100716.97;5026362;28;20025;-59
2022/11/01 01:50:34;;;;;;;13.45;6.80;;;;;;;16.16;92.88;100719.19;5020864;28;20013;-59
2022/11/01 01:53:12;;;;;;;16.10;6.65;;;;;;;16.12;92.90;100706.13;5024762;28;20033;-59
2022/11/01 01:55:55;;;;;;;11.00;6.60;;;;;;;16.10;93.55;100711.94;5013557;28;20059;-59
2022/11/01 01:58:24;;;;;;;13.55;6.32;;;;;;;16.16;92.85;100707.25;5025691;28;20037;-58
2022/11/01 02:00:51;;;;;;;15.40;6.75;;;;;;;16.20;93.08;100711.16;5026475;28;20025;-58
2022/11/01 02:03:16;;;;;;;10.65;6.53;;;;;;;16.22;93.05;100697.84;5025331;28;20404;-59
2022/11/01 02:05:55;;;;;;;15.50;7.90;;;;;;;16.28;92.74;100702.34;5026223;28;20025;-59
2022/11/01 02:08:26;;;;;;;14.43;7.35;;;;;;;16.28;92.51;100708.72;5026011;28;20038;-60
2022/11/01 02:11:05;;;;;;;16.05;7.47;;;;;;;16.36;92.79;100696.25;5024937;28;20042;-60
2022/11/01 02:13:31;;;;;;;13.43;6.55;;;;;;;16.38;92.47;100701.53;5025811;28;20025;-58
2022/11/01 02:16:02;;;;;;;12.50;6.95;;;;;;;16.36;92.54;100704.56;5024797;28;20083;-59
2022/11/01 02:18:37;;;;;;;13.07;6.30;;;;;;;16.37;92.62;100706.22;5025268;28;20074;-59
2022/11/01 02:21:24;;;;;;;14.23;6.90;;;;;;;16.39;92.44;100701.25;5025502;28;20380;-59
2022/11/01 02:24:13;;;;;;;11.00;6.13;;;;;;;16.44;92.06;100712.34;5025734;28;20438;-60
2022/11/01 02:26:56;;;;;;;13.23;6.75;;;;;;;16.43;92.22;100710.69;5024186;28;20034;-58
2022/11/01 02:29:36;;;;;;;15.15;6.15;;;;;;;16.44;91.99;100717.91;5026056;28;20361;-58
2022/11/01 02:32:23;;;;;;;14.45;7.35;;;;;;;16.42;92.49;100709.00;5007369;28;20370;-58
2022/11/01 02:34:57;;;;;;;17.60;7.03;;;;;;;16.43;92.02;100712.63;5022301;28;20038;-60
2022/11/01 02:37:43;;;;;;;14.07;6.28;;;;;;;16.42;92.10;100709.00;5024583;28;20427;-58
2022/11/01 02:40:14;;;;;;;13.63;6.80;;;;;;;16.38;92.42;100713.44;5026200;28;20038;-59
2022/11/01 02:42:47;;;;;;;12.60;6.68;;;;;;;16.34;92.35;100715.09;5023843;28;20025;-59
2022/11/01 02:45:27;;;;;;;14.25;6.47;;;;;;;16.31;92.41;100724.78;5025029;28;20044;-59
2022/11/01 02:48:03;;;;;;;15.00;6.85;;;;;;;16.29;92.41;100729.78;5024483;28;20109;-59
2022/11/01 02:50:46;;;;;;;14.52;6.35;;;;;;;16.30;91.87;100728.66;5026084;28;20488;-59
2022/11/01 02:53:12;;;;;;;14.15;5.93;;;;;;;16.31;91.35;100729.50;5024027;28;20562;-59
2022/11/01 02:55:37;;;;;;;10.93;6.35;;;;;;;16.26;91.84;100721.97;5024830;28;20121;-59
2022/11/01 02:58:15;;;;;;;11.80;5.53;;;;;;;16.30;91.88;100716.75;5016682;28;20392;-59
2022/11/01 03:00:41;;;;;;;17.27;6.60;;;;;;;16.21;92.36;100730.28;5007271;28;20026;-59
2022/11/01 03:03:30;;;;;;;13.10;6.20;;;;;;;16.22;92.45;100726.44;5025306;28;20022;-59
2022/11/01 03:06:04;;;;;;;12.68;6.13;;;;;;;16.16;93.05;100724.72;5024123;28;20037;-59
2022/11/01 03:08:36;;;;;;;14.30;6.15;;;;;;;16.16;92.84;100729.44;5025582;28;20030;-59
2022/11/01 03:11:11;;;;;;;12.40;6.03;;;;;;;16.13;93.15;100733.59;5024826;28;20042;-58
2022/11/01 03:13:57;;;;;;;13.93;6.43;;;;;;;16.14;92.97;100737.19;5017958;28;20033;-59
2022/11/01 03:16:44;;;;;;;13.45;6.60;;;;;;;16.10;93.40;100739.66;5019713;28;20475;-59
2022/11/01 03:19:14;;;;;;;11.93;6.40;;;;;;;16.07;93.36;100735.50;5025801;28;20113;-58
2022/11/01 03:21:45;;;;;;;13.32;6.47;;;;;;;16.01;93.84;100753.19;5026202;28;20038;-59
2022/11/01 03:24:21;;;;;;;14.35;7.00;;;;;;;15.98;93.81;100748.19;5024332;28;20025;-58
2022/11/01 03:26:53;;;;;;;16.15;6.60;;;;;;;15.99;94.07;100760.09;5022309;28;20451;-60
2022/11/01 03:29:23;;;;;;;13.45;6.65;;;;;;;15.94;93.19;100768.41;5024565;28;20029;-59
2022/11/01 03:31:49;;;;;;;11.38;5.85;;;;;;;15.95;91.66;100773.66;5025190;28;20025;-60
2022/11/01 03:34:17;;;;;;;12.40;5.53;;;;;;;16.03;89.21;100767.63;5028246;28;20030;-59
2022/11/01 03:36:48;;;;;;;11.40;5.70;;;;;;;16.02;87.76;100776.22;5030555;28;20091;-59
2022/11/01 03:39:19;;;;;;;11.43;4.93;;;;;;;15.99;87.40;100773.97;5028514;28;20392;-58
2022/11/01 03:41:48;;;;;;;8.50;3.88;;;;;;;15.91;85.98;100788.31;5027818;28;20511;-59
2022/11/01 03:44:13;;;;;;;9.77;3.65;;;;;;;15.87;84.56;100788.03;5028526;28;20057;-59
2022/11/01 03:46:40;;;;;;;8.10;3.38;;;;;;;15.84;83.67;100799.63;5029218;28;20469;-59
2022/11/01 03:49:05;;;;;;;7.63;3.40;;;;;;;15.82;82.47;100801.84;5028297;28;20036;-58
2022/11/01 03:51:31;;;;;;;8.77;2.65;;;;;;;15.75;81.51;100810.34;5028187;28;20034;-59
2022/11/01 03:53:56;;;;;;;5.10;2.70;;;;;;;15.78;78.79;100800.69;5027995;28;20049;-59
2022/11/01 03:56:22;;;;;;;7.18;2.58;;;;;;;15.76;77.65;100811.19;5029110;28;20033;-58
2022/11/01 03:58:47;;;;;;;6.43;2.35;;;;;;;15.63;78.03;100820.81;5015927;28;20116;-59
2022/11/01 04:01:15;;;;;;;6.10;2.42;;;;;;;15.50;77.38;100819.28;5027792;28;20037;-58
2022/11/01 04:03:41;;;;;;;4.97;2.10;;;;;;;15.49;76.41;100834.22;5028472;28;20034;-59
2022/11/01 04:06:07;;;;;;;6.30;1.73;;;;;;;15.38;76.53;100843.53;5028860;28;20499;-59
2022/11/01 04:08:33;;;;;;;7.05;1.88;;;;;;;15.42;75.04;100838.31;5026769;28;20098;-59
2022/11/01 04:10:58;;;;;;;4.75;1.60;;;;;;;15.46;72.64;100853.28;5028243;28;20083;-59
2022/11/01 04:13:24;;;;;;;5.13;1.88;;;;;;;15.40;72.23;100859.88;5027077;28;20033;-59
2022/11/01 04:21:20;;;;;;;3.35;1.33;;;;;;;15.27;69.16;100874.97;5025110;28;20122;-58
2022/11/01 04:23:46;;;;;;;4.63;1.30;;;;;;;15.21;69.41;100882.41;5028028;28;20025;-58
2022/11/01 04:26:20;;;;;;;4.78;1.30;;;;;;;15.22;69.63;100902.59;5028574;28;20037;-58
2022/11/01 04:28:55;;;;;;;4.25;1.20;;;;;;;15.12;69.44;100910.78;5027202;28;20033;-58
2022/11/01 04:31:28;;;;;;;3.42;1.10;;;;;;;14.98;71.37;100915.88;5014297;28;20029;-58
2022/11/01 04:33:54;;;;;;;4.63;1.38;;;;;;;14.87;71.09;100906.63;5027860;28;20116;-59
2022/11/01 04:36:20;;;;;;;3.03;1.15;;;;;;;14.88;70.62;100915.75;5028489;28;20037;-59
2022/11/01 04:38:50;;;;;;;3.10;1.50;;;;;;;14.72;72.08;100923.00;5025651;28;20092;-59
2022/11/01 04:41:21;;;;;;;4.25;1.20;;;;;;;14.67;71.80;100934.00;5028920;28;20286;-58
2022/11/01 04:43:47;;;;;;;3.72;1.00;;;;;;;14.58;71.77;100932.78;5024655;28;20045;-59
2022/11/01 04:46:13;;;;;;;4.07;1.23;;;;;;;14.52;72.48;100938.22;5027213;28;20063;-59
2022/11/01 04:48:38;;;;;;;3.25;1.20;;;;;;;14.44;72.62;100944.13;5027856;28;20045;-58
2022/11/01 04:51:04;;;;;;;5.45;1.20;;;;;;;14.34;73.99;100952.28;5027020;28;20121;-59
2022/11/01 04:53:29;;;;;;;3.60;1.23;;;;;;;14.27;73.77;100954.41;5027416;28;20439;-59
2022/11/01 04:55:54;;;;;;;3.47;1.20;;;;;;;14.22;74.11;100963.44;5026721;28;20075;-59
2022/11/01 04:58:20;;;;;;;5.35;1.38;;;;;;;14.17;74.19;100966.13;5026458;28;20034;-59
2022/11/01 05:00:45;;;;;;;7.10;1.65;;;;;;;14.20;73.99;100975.84;5027611;28;20041;-58
2022/11/01 05:03:11;;;;;;;5.55;1.20;;;;;;;14.16;74.13;100989.31;5026700;28;20428;-59
2022/11/01 05:05:37;;;;;;;5.10;1.45;;;;;;;14.14;74.40;100988.75;5025436;28;20037;-58
2022/11/01 05:08:08;;;;;;;4.72;1.35;;;;;;;14.15;74.05;101001.44;5026319;28;20073;-58
2022/11/01 05:10:35;;;;;;;5.38;1.08;;;;;;;14.07;74.14;100998.25;5028366;28;20439;-59
2022/11/01 05:13:01;;;;;;;3.35;1.30;;;;;;;14.09;73.98;101007.13;5026064;28;20095;-59
2022/11/01 05:15:26;;;;;;;5.10;1.20;;;;;;;14.04;73.47;101007.91;5027322;28;20041;-58
2022/11/01 05:17:52;;;;;;;3.90;1.10;;;;;;;14.02;73.02;101016.41;5025072;28;20040;-59
2022/11/01 05:20:17;;;;;;;5.88;1.30;;;;;;;14.03;71.89;101008.97;5028027;28;20061;-58
2022/11/01 05:22:43;;;;;;;5.10;1.17;;;;;;;13.95;72.04;101006.63;5025937;28;20049;-58
2022/11/01 05:25:08;;;;;;;7.10;1.35;;;;;;;13.86;71.97;101017.22;5025915;28;20068;-59
2022/11/01 05:27:35;;;;;;;5.53;1.60;;;;;;;13.81;71.96;101028.19;5024792;28;20026;-59
2022/11/01 05:30:00;;;;;;;5.32;1.27;;;;;;;13.83;71.48;101026.00;5020914;28;20135;-58
2022/11/01 05:32:26;;;;;;;5.55;1.30;;;;;;;13.73;71.72;101037.69;5007968;28;20246;-58
2022/11/01 05:34:51;;;;;;;5.18;1.40;;;;;;;13.65;71.78;101037.25;5012982;28;20520;-59
2022/11/01 05:37:16;;;;;;;5.75;1.45;;;;;;;13.66;71.35;101036.19;5025729;28;20037;-59
2022/11/01 05:39:41;;;;;;;7.00;1.38;;;;;;;13.60;71.39;101028.88;5027087;28;20040;-59
2022/11/01 05:42:07;;;;;;;4.03;1.60;;;;;;;13.54;71.88;101038.16;5020752;28;20038;-58
2022/11/01 05:44:32;;;;;;;5.15;1.48;;;;;;;13.49;72.00;101034.22;5026228;28;20029;-58
2022/11/01 05:46:57;;;;;;;4.72;1.30;;;;;;;13.43;72.30;101045.38;5024643;28;20030;-58
2022/11/01 05:49:23;;;;;;;8.27;1.30;;;;;;;13.40;72.82;101052.22;5027855;28;20057;-58
2022/11/01 05:51:48;;;;;;;6.28;2.17;;;;;;;13.39;73.28;101047.78;5019691;28;20034;-59
2022/11/01 05:54:14;;;;;;;4.40;1.15;;;;;;;13.40;72.82;101048.63;5034885;28;20468;-58
2022/11/01 05:56:39;;;;;;;5.18;1.38;;;;;;;13.35;73.64;101054.03;5036525;28;20037;-59
2022/11/01 05:59:04;;;;;;;3.20;1.40;;;;;;;13.26;74.28;101064.59;5016349;28;20032;-58
2022/11/01 06:01:29;;;;;;;5.20;1.42;;;;;;;13.19;75.28;101061.97;5020016;28;20284;-58
2022/11/01 06:04:00;;;;;;;3.53;1.10;;;;;;;13.17;75.72;101075.13;5024243;28;20757;-59
2022/11/01 06:06:25;;;;;;;3.80;1.30;;;;;;;13.26;73.77;101074.81;5027547;28;20061;-59
2022/11/01 06:08:51;;;;;;;6.80;1.50;;;;;;;13.28;72.94;101062.47;5025166;28;20423;-58
2022/11/01 06:11:16;;;;;;;7.78;2.15;;;;;;;13.26;72.24;101075.66;5026767;28;20046;-59
2022/11/01 06:13:41;;;;;;;7.72;2.08;;;;;;;13.30;71.15;101079.59;5026846;28;20035;-59
2022/11/01 06:16:07;;;;;;;7.25;1.65;;;;;;;13.18;70.90;101084.28;5026448;28;20060;-58
2022/11/01 06:18:32;;;;;;;6.43;1.58;;;;;;;13.14;70.21;101099.63;5027536;28;20032;-59
2022/11/01 06:20:58;;;;;;;7.90;1.60;;;;;;;13.17;69.68;101093.59;5026224;28;20669;-58
2022/11/01 06:23:23;;;;;;;6.00;1.77;;;;;;;13.15;69.67;101093.03;5012116;28;20396;-59
2022/11/01 06:25:48;;;;;;;8.57;1.63;;;;;;;13.20;69.46;101109.69;5014729;28;20033;-60
2022/11/01 06:28:14;;;;;;;7.53;1.58;;;;;;;13.16;69.31;101108.47;5026648;28;20017;-59
2022/11/01 06:30:40;;;;;;;7.95;1.65;;;;;;;13.12;69.42;101104.53;5026056;28;20106;-59
2022/11/01 06:33:05;;;;;;;8.32;1.80;;;;;;;13.11;69.61;101108.38;5026260;28;20407;-59
2022/11/01 06:35:34;;;;;;;5.55;1.30;;;;;;;13.13;70.35;101114.50;5024601;28;20076;-59
2022/11/01 06:38:05;;;;;;;9.60;1.77;;;;;;;13.09;70.73;101118.81;5026326;28;20075;-59
2022/11/01 06:40:31;;;;;;;6.45;1.85;;;;;;;13.02;71.09;101129.94;5025393;28;20096;-59
2022/11/01 06:43:01;;;;;;;8.25;1.80;;;;;;;13.04;71.14;101130.56;5026117;28;20033;-59
2022/11/01 06:45:27;;;;;;;7.75;1.40;;;;;;;12.97;71.84;101133.41;5025606;28;20034;-59
2022/11/01 06:47:52;;;;;;;8.40;1.63;;;;;;;12.93;72.30;101145.19;5026919;28;20024;-59
2022/11/01 06:50:17;;;;;;;10.45;1.45;;;;;;;12.87;73.39;101152.47;5022077;28;20038;-59
2022/11/01 06:52:42;;;;;;;5.32;1.90;;;;;;;12.79;73.79;101150.09;5026673;28;20039;-59
2022/11/01 06:55:08;;;;;;;5.57;1.63;;;;;;;12.78;73.95;101144.81;5023244;28;20034;-59
2022/11/01 06:57:33;;;;;;;6.93;1.60;;;;;;;12.78;74.00;101145.66;5024675;28;20048;-59
2022/11/01 06:59:58;;;;;;;8.48;1.40;;;;;;;12.72;74.78;101161.22;5026571;28;20440;-59
2022/11/01 07:02:24;;;;;;;7.53;1.70;;;;;;;12.80;74.52;101157.28;5025153;28;20033;-59
2022/11/01 07:04:50;;;;;;;7.28;1.60;;;;;;;12.76;75.04;101153.31;5025915;28;20025;-59
2022/11/01 07:07:15;;;;;;;8.63;1.70;;;;;;;12.76;74.61;101166.25;5026162;28;20033;-59
2022/11/01 07:09:40;;;;;;;8.98;1.80;;;;;;;12.75;75.19;101176.44;5030536;28;20053;-59
2022/11/01 07:12:05;;;;;;;6.40;1.63;;;;;;;12.73;75.00;101175.84;5029756;28;20633;-59
2022/11/01 07:14:31;;;;;;;7.35;1.63;;;;;;;12.71;74.97;101187.09;5028291;28;20030;-59
2022/11/01 07:16:56;;;;;;;7.78;1.60;;;;;;;12.71;74.89;101177.97;5027996;28;20075;-59
2022/11/01 07:19:22;;;;;;;10.82;1.95;;;;;;;12.73;75.06;101200.66;5030444;28;20025;-59
2022/11/01 07:21:48;;;;;;;10.18;1.92;;;;;;;12.74;75.05;101210.59;5029098;28;20017;-57
2022/11/01 07:24:13;;;;;;;8.40;1.77;;;;;;;12.76;74.71;101211.19;5030499;28;20475;-59
2022/11/01 07:26:38;;;;;;;9.05;2.45;;;;;;;12.76;74.53;101218.63;5028054;28;20460;-59
2022/11/01 07:29:04;;;;;;;8.07;1.58;;;;;;;12.83;73.89;101211.09;5030469;28;20501;-59
2022/11/01 07:31:32;;;;;;;8.57;2.15;;;;;;;12.80;74.17;101220.66;5028833;28;20030;-59
2022/11/01 07:33:57;;;;;;;13.27;2.30;;;;;;;12.78;74.61;101239.38;5025388;28;20157;-59
2022/11/01 07:36:22;;;;;;;11.15;2.10;;;;;;;12.83;73.97;101231.22;5030397;28;20487;-59
2022/11/01 07:38:47;;;;;;;11.38;2.08;;;;;;;12.81;74.29;101235.28;5029867;28;20591;-59
2022/11/01 07:41:13;;;;;;;12.00;1.98;;;;;;;12.83;74.41;101236.75;5029201;28;20033;-61
2022/11/01 07:43:38;;;;;;;10.63;1.85;;;;;;;12.85;74.34;101245.59;5029577;28;20384;-59
2022/11/01 07:46:05;;;;;;;13.73;2.45;;;;;;;12.82;74.24;101243.31;5029298;28;20034;-59
2022/11/01 07:48:31;;;;;;;11.65;2.35;;;;;;;12.82;74.74;101248.81;5029591;28;20025;-58
2022/11/01 07:50:56;;;;;;;13.88;2.80;;;;;;;12.83;74.18;101256.03;5028758;28;20028;-59
2022/11/01 07:53:21;;;;;;;9.48;1.60;;;;;;;12.83;74.28;101258.81;5027455;28;20025;-59
2022/11/01 07:55:47;;;;;;;11.10;1.83;;;;;;;12.86;73.74;101252.78;5030071;28;20803;-59
2022/11/01 07:58:14;;;;;;;9.43;2.38;;;;;;;12.92;73.13;101259.28;5028655;28;20112;-59
2022/11/01 08:00:40;;;;;;;11.25;1.98;;;;;;;12.94;73.29;101270.94;5030147;28;20023;-59
2022/11/01 08:03:08;;;;;;;8.30;1.90;;;;;;;13.02;72.41;101269.72;5027901;28;20115;-59
2022/11/01 08:05:34;;;;;;;10.30;1.98;;;;;;;13.05;72.75;101274.78;5029831;28;20030;-59
2022/11/01 08:08:00;;;;;;;8.18;2.10;;;;;;;13.12;71.50;101270.81;5028100;28;20036;-59
2022/11/01 08:10:27;;;;;;;14.88;2.25;;;;;;;13.15;71.90;101275.03;5022841;28;20577;-59
2022/11/01 08:12:59;;;;;;;7.72;1.90;;;;;;;13.22;71.61;101270.28;5018292;28;20049;-59
2022/11/01 08:15:24;;;;;;;8.75;1.83;;;;;;;13.28;71.30;101265.72;5014877;28;20041;-58
2022/11/01 08:17:49;;;;;;;12.73;2.20;;;;;;;13.53;69.95;101271.00;5012505;28;20061;-60
2022/11/01 08:20:15;;;;;;;12.30;2.60;;;;;;;13.72;69.62;101278.09;5014763;28;20496;-59
2022/11/01 08:22:40;;;;;;;11.73;2.25;;;;;;;13.86;68.32;101278.69;5017531;28;20033;-58
2022/11/01 08:25:06;;;;;;;13.93;2.63;;;;;;;13.89;68.06;101279.06;5011968;28;20030;-59
2022/11/01 08:27:32;;;;;;;12.43;2.78;;;;;;;14.03;67.90;101283.22;5013957;28;20044;-59
2022/11/01 08:29:57;;;;;;;11.57;1.90;;;;;;;14.21;67.73;101282.22;5016112;28;20040;-59
2022/11/01 08:32:22;;;;;;;11.70;2.25;;;;;;;14.52;66.35;101294.78;5010199;28;20075;-60
2022/11/01 08:34:48;;;;;;;12.93;2.10;;;;;;;15.01;63.90;101295.16;5017734;28;20083;-59
2022/11/01 08:37:13;;;;;;;13.35;2.38;;;;;;;15.79;61.35;101289.78;5008258;28;20307;-59
2022/11/01 08:39:39;;;;;;;12.55;2.13;;;;;;;16.71;58.73;101294.59;5008420;28;20029;-60
2022/11/01 08:42:04;;;;;;;10.48;1.92;;;;;;;17.22;56.29;101297.88;5015232;28;20033;-60
2022/11/01 08:44:31;;;;;;;11.85;2.22;;;;;;;17.43;55.45;101292.47;5017587;28;20045;-59
2022/11/01 08:46:59;;;;;;;12.25;2.63;;;;;;;17.53;54.02;101298.13;5014856;28;20392;-59
2022/11/01 08:49:25;;;;;;;9.65;1.70;;;;;;;17.56;53.41;101300.38;5005285;28;20026;-59
2022/11/01 08:51:50;;;;;;;9.25;1.90;;;;;;;17.77;53.36;101295.81;5015980;28;20104;-60
2022/11/01 08:54:16;;;;;;;12.45;2.20;;;;;;;18.04;52.02;101295.69;5014017;28;20120;-59
2022/11/01 08:56:41;;;;;;;13.70;2.45;;;;;;;18.20;51.57;101299.41;5008619;28;20474;-60
2022/11/01 08:59:06;;;;;;;9.00;2.10;;;;;;;18.29;51.22;101309.72;5012675;28;20095;-60
2022/11/01 09:01:32;;;;;;;11.27;1.98;;;;;;;18.55;50.97;101302.34;5013341;28;20552;-60
2022/11/01 09:04:00;;;;;;;9.35;2.20;;;;;;;19.43;49.76;101316.16;5012446;28;20040;-60
2022/11/01 09:06:26;;;;;;;8.77;1.70;;;;;;;19.87;46.98;101318.41;5025160;28;20091;-58
2022/11/01 09:08:52;;;;;;;8.13;2.03;;;;;;;19.73;47.38;101319.25;5016115;28;20763;-60
2022/11/01 09:11:22;;;;;;;13.13;2.45;;;;;;;19.72;47.37;101324.00;5015560;28;20068;-60
2022/11/01 09:13:48;;;;;;;7.75;1.73;;;;;;;19.94;46.65;101313.34;5021184;28;20145;-59
2022/11/01 09:16:13;;;;;;;10.35;1.90;;;;;;;19.99;46.01;101308.88;5008012;28;20045;-60
2022/11/01 09:18:39;;;;;;;11.02;2.17;;;;;;;20.01;46.12;101313.03;5006227;28;20026;-60
2022/11/01 09:21:06;;;;;;;10.32;2.00;;;;;;;19.97;46.37;101325.88;5012503;28;20030;-60
2022/11/01 09:23:33;;;;;;;8.13;1.77;;;;;;;20.20;46.24;101333.63;5017123;28;20119;-60
2022/11/01 09:26:02;;;;;;;9.90;1.95;;;;;;;20.09;46.31;101320.00;5019372;28;20412;-60
2022/11/01 09:28:29;;;;;;;9.93;2.20;;;;;;;20.36;45.83;101328.84;5019072;28;20037;-60
2022/11/01 09:30:54;;;;;;;9.15;2.10;;;;;;;19.99;46.04;101339.56;5011490;28;20029;-60
2022/11/01 09:33:22;;;;;;;12.50;2.05;;;;;;;20.09;46.18;101332.00;5020505;28;20033;-60
2022/11/01 09:35:49;;;;;;;11.18;2.33;;;;;;;20.21;45.59;101334.47;5014968;28;20046;-60
2022/11/01 09:38:14;;;;;;;9.35;1.92;;;;;;;20.31;45.27;101347.56;5017606;28;20025;-60
2022/11/01 09:40:45;;;;;;;9.93;2.00;;;;;;;20.94;45.25;101347.88;5024106;28;20025;-60
2022/11/01 09:43:16;;;;;;;10.38;2.47;;;;;;;21.03;44.20;101357.28;5016358;28;20037;-60
2022/11/01 09:45:41;;;;;;;9.25;2.13;;;;;;;21.65;43.73;101374.50;5010848;28;20112;-59
2022/11/01 09:48:09;;;;;;;11.35;2.50;;;;;;;21.82;42.41;101386.09;5014400;28;20091;-60
2022/11/01 09:50:36;;;;;;;11.77;2.25;;;;;;;21.88;42.66;101381.28;5019169;28;20038;-60
2022/11/01 09:53:07;;;;;;;11.00;2.15;;;;;;;22.33;41.66;101379.19;5011325;28;20074;-59
2022/11/01 09:55:44;;;;;;;11.55;2.17;;;;;;;22.01;42.78;101389.00;5007311;28;20030;-60
2022/11/01 09:58:48;;;;;;;10.10;2.10;;;;;;;21.62;43.23;101391.84;5006439;28;20062;-60
2022/11/01 10:01:39;;;;;;;10.10;1.92;;;;;;;21.38;43.89;101394.53;5002499;28;20385;-60
2022/11/01 10:04:30;;;;;;;11.65;2.33;;;;;;;21.60;44.02;101394.94;5006401;28;20613;-60
2022/11/01 10:07:04;;;;;;;10.20;2.38;;;;;;;21.99;41.75;101408.84;5011552;28;20033;-60
2022/11/01 10:09:55;;;;;;;11.18;1.98;;;;;;;22.27;42.51;101404.44;5025436;28;20056;-60
2022/11/01 10:12:27;;;;;;;11.88;2.70;;;;;;;22.45;41.92;101404.78;5012631;28;20048;-60
2022/11/01 10:15:17;;;;;;;9.93;2.13;;;;;;;23.14;42.17;101411.81;5011923;28;20112;-59
2022/11/01 10:17:53;;;;;;;7.10;1.75;;;;;;;22.98;40.50;101410.34;5007047;28;20033;-60
2022/11/01 10:20:23;;;;;;;7.90;1.83;;;;;;;22.63;40.60;101411.59;5020351;28;20036;-60
2022/11/01 10:22:49;;;;;;;10.38;2.58;;;;;;;22.20;41.25;101434.75;5015545;28;20484;-64
2022/11/01 10:25:22;;;;;;;10.60;1.98;;;;;;;21.93;42.52;101412.00;5020847;28;20512;-63
2022/11/01 10:28:14;;;;;;;8.43;1.98;;;;;;;22.54;42.18;101414.22;5017162;28;20447;-63
2022/11/01 10:30:45;;;;;;;9.70;2.40;;;;;;;22.44;41.51;101408.72;5004780;28;20515;-62
2022/11/01 10:33:23;;;;;;;10.80;2.40;;;;;;;22.39;41.20;101408.78;5023842;28;20026;-62
2022/11/01 10:36:13;;;;;;;9.02;2.20;;;;;;;22.68;42.13;101414.34;5009094;28;20029;-64
2022/11/01 10:38:42;;;;;;;10.23;2.15;;;;;;;22.72;40.84;101410.66;5006035;28;20038;-63
2022/11/01 10:41:22;;;;;;;11.45;1.90;;;;;;;23.58;39.75;101418.19;5012310;28;20508;-62
2022/11/01 10:44:14;;;;;;;8.57;2.45;;;;;;;23.61;39.70;101415.56;5017242;28;20029;-62
2022/11/01 10:46:44;;;;;;;8.75;1.88;;;;;;;23.25;39.24;101418.09;5018181;28;20040;-63
2022/11/01 10:49:32;;;;;;;9.48;1.77;;;;;;;23.75;40.56;101415.69;5030943;28;20118;-63
2022/11/01 10:52:10;;;;;;;9.98;1.90;;;;;;;24.20;39.26;101413.22;5020635;28;20026;-63
2022/11/01 10:54:39;;;;;;;9.10;2.38;;;;;;;23.76;38.34;101415.34;5020800;28;20078;-63
2022/11/01 10:57:13;;;;;;;7.65;2.13;;;;;;;23.36;39.71;101418.78;5026255;28;20076;-63
2022/11/01 10:59:45;;;;;;;7.95;1.85;;;;;;;23.21;39.69;101412.25;5028742;28;20047;-62
2022/11/01 11:02:18;;;;;;;7.18;1.60;;;;;;;23.31;39.39;101419.69;5021127;28;20065;-63
2022/11/01 11:04:44;;;;;;;8.45;1.60;;;;;;;22.92;39.88;101419.97;5021423;28;20105;-65
2022/11/01 11:07:13;;;;;;;8.77;1.83;;;;;;;22.87;39.79;101414.38;5025122;28;20686;-64
2022/11/01 11:09:39;;;;;;;10.65;1.77;;;;;;;22.89;40.13;101423.34;5022226;28;21500;-64
2022/11/01 11:12:24;;;;;;;8.35;1.98;;;;;;;23.86;40.14;101421.94;5024297;28;20080;-64
2022/11/01 11:14:54;;;;;;;9.95;1.77;;;;;;;23.41;38.58;101407.47;5018504;28;20469;-64
2022/11/01 11:17:36;;;;;;;9.00;2.35;;;;;;;23.75;39.06;101410.06;5020977;28;20104;-65
2022/11/01 11:20:06;;;;;;;8.73;1.80;;;;;;;23.74;38.20;101412.03;5026361;28;20029;-64
2022/11/01 11:22:38;;;;;;;8.60;1.90;;;;;;;24.07;37.77;101406.41;5025826;28;20380;-64
2022/11/01 11:25:05;;;;;;;8.50;1.48;;;;;;;24.01;38.02;101407.66;5024943;28;20542;-64
2022/11/01 11:27:34;;;;;;;10.88;2.03;;;;;;;24.34;38.04;101402.84;5024545;28;20357;-64
2022/11/01 11:30:09;;;;;;;10.00;2.00;;;;;;;23.77;37.70;101403.03;5027383;28;20066;-64
2022/11/01 11:32:39;;;;;;;8.48;2.05;;;;;;;23.26;38.71;101419.75;5031626;28;20424;-64
2022/11/01 11:35:15;;;;;;;8.70;2.35;;;;;;;22.77;39.14;101395.75;5032533;28;20026;-64